Airfield :
LOGIN :

Register | Disclaimer

   EN    FR    IT 

 










Legend :    VFR   Marginal VFR   IFR   Intensive IFR   Very Intensive IFR
Visi :
Ceiling :
>= 8 km
>= 3000ft
5 to 8 km
1000 to 3000 ft
1500m to 5 km
500 to 1000 ft
800 to 1500m
200 to 500 ft
< 800m
< 200 ft
Symbols :   Thunderstorms  Fog  Heavy snow  Heavy precipitations  Wind > 20 kt
SIGMETs :     Misc.  Thunderstorms  Icing  Turbulence  Mountain Waves  Volcanic Ashes






- Airport Elevation : 1548 ft


LKNA - Náměšť Air Base

CURRENT METAR :
  • 200500Z 27007KT CAVOK 01/M03 Q1022 NOSIG RMK BLU BLU

EXPIRED METARs :
  • 200430Z 28010KT CAVOK 01/M02 Q1021 NOSIG RMK BLU BLU
  • 200400Z 28011KT CAVOK 01/M03 Q1021 NOSIG RMK BLU BLU
  • 200330Z 28012KT CAVOK 01/M03 Q1021 RMK BLU
  • 200300Z 28011KT CAVOK 01/M02 Q1021
  • 200230Z 27013KT CAVOK 01/M02 Q1021 RMK BLU

TAF TAF LKNA
Valid from the 20 at 00:00 until the 21 at 00:00 UTC


192300Z 2000/2100 28010KT CAVOK
TEMPO 2000/2006 28015KT FEW025
BECMG 2011/2013 32007KT FEW030 BKN040
BECMG 2018/2020 16006KT CAVOK



MET'MAP, your aeronautical weather chart ! - Copyright ORBIFLY December 2007 - Disclaimer

ORBIFLY MET'MAP TEAM :

Programming & Development : Alexandra Zaïnal
Concept & original design : Baudouin d'Aumeries
Assistance for programming : Marc-Olivier Méhu
Technical & hardware support : Manuel Goepfert

Contact : metmap@orbifly.com




SOURCES & CREDITS :

   NOAA